createdAt,value
2022-08-26T00:01:00.165Z,3.08
2022-08-26T00:03:27.097Z,3.10
2022-08-26T00:05:54.701Z,3.42
2022-08-26T00:08:22.113Z,3.28
2022-08-26T00:10:49.259Z,3.38
2022-08-26T00:13:16.280Z,3.40
2022-08-26T00:15:47.050Z,3.47
2022-08-26T00:18:21.771Z,3.58
2022-08-26T00:20:49.485Z,3.28
2022-08-26T00:23:17.799Z,3.28
2022-08-26T00:25:44.669Z,3.13
2022-08-26T00:28:11.772Z,3.40
2022-08-26T00:30:39.015Z,3.50
2022-08-26T00:33:06.318Z,3.45
2022-08-26T00:35:34.778Z,3.25
2022-08-26T00:38:03.555Z,2.90
2022-08-26T00:40:38.525Z,3.50
2022-08-26T00:43:09.346Z,3.10
2022-08-26T00:45:58.327Z,3.33
2022-08-26T00:48:26.918Z,3.15
2022-08-26T00:51:04.764Z,3.03
2022-08-26T00:53:34.764Z,4.05
2022-08-26T00:56:08.667Z,3.33
2022-08-26T00:58:36.480Z,3.33
2022-08-26T01:01:03.588Z,3.65
2022-08-26T01:03:32.069Z,3.80
2022-08-26T01:05:59.892Z,3.55
2022-08-26T01:08:27.162Z,3.70
2022-08-26T01:10:55.760Z,3.33
2022-08-26T01:13:23.193Z,3.72
2022-08-26T01:15:55.499Z,3.58
2022-08-26T01:18:22.412Z,3.33
2022-08-26T01:21:16.711Z,3.45
2022-08-26T01:23:49.585Z,3.33
2022-08-26T01:26:22.017Z,3.47
2022-08-26T01:28:51.490Z,3.58
2022-08-26T01:31:24.826Z,3.50
2022-08-26T01:33:53.374Z,3.22
2022-08-26T01:36:20.308Z,3.70
2022-08-26T01:38:47.576Z,3.85
2022-08-26T01:41:17.200Z,3.80
2022-08-26T01:43:47.861Z,4.15
2022-08-26T01:46:15.413Z,3.88
2022-08-26T01:48:42.879Z,3.85
2022-08-26T01:51:10.655Z,3.67
2022-08-26T01:53:37.804Z,3.90
2022-08-26T01:56:09.184Z,3.95
2022-08-26T01:58:44.552Z,3.63
2022-08-26T02:01:11.602Z,4.20
2022-08-26T02:03:43.468Z,3.97
2022-08-26T02:06:10.634Z,4.35
2022-08-26T02:08:41.660Z,3.83
2022-08-26T02:11:08.770Z,3.85
2022-08-26T02:13:41.913Z,4.18
2022-08-26T02:16:09.422Z,3.83
2022-08-26T02:18:38.519Z,4.25
2022-08-26T02:21:06.622Z,3.72
2022-08-26T02:23:33.695Z,3.88
2022-08-26T02:26:10.729Z,3.80
2022-08-26T02:29:07.585Z,3.47
2022-08-26T02:31:34.632Z,4.10
2022-08-26T02:34:09.142Z,3.65
2022-08-26T02:36:37.812Z,4.05
2022-08-26T02:39:29.586Z,3.70
2022-08-26T02:41:56.662Z,4.25
2022-08-26T02:44:23.488Z,4.05
2022-08-26T02:47:18.241Z,4.20
2022-08-26T02:49:47.206Z,3.90
2022-08-26T02:52:14.405Z,3.78
2022-08-26T02:54:41.244Z,3.85
2022-08-26T02:57:09.127Z,4.10
2022-08-26T02:59:36.144Z,4.03
2022-08-26T03:02:03.257Z,3.38
2022-08-26T03:04:30.472Z,3.90
2022-08-26T03:07:00.320Z,3.72
2022-08-26T03:09:27.956Z,3.70
2022-08-26T03:11:55.590Z,4.00
2022-08-26T03:14:24.020Z,3.50
2022-08-26T03:16:53.994Z,3.80
2022-08-26T03:19:22.177Z,4.03
2022-08-26T03:21:49.530Z,3.58
2022-08-26T03:24:17.547Z,3.97
2022-08-26T03:26:52.135Z,4.30
2022-08-26T03:29:39.044Z,4.05
2022-08-26T03:32:06.220Z,3.90
2022-08-26T03:34:33.632Z,3.70
2022-08-26T03:37:00.589Z,4.13
2022-08-26T03:39:27.501Z,3.30
2022-08-26T03:41:58.979Z,3.85
2022-08-26T03:44:26.532Z,3.95
2022-08-26T03:46:54.560Z,3.65
2022-08-26T03:49:22.168Z,4.30
2022-08-26T03:51:49.061Z,3.90
2022-08-26T03:54:17.060Z,4.05
2022-08-26T03:56:43.980Z,4.07
2022-08-26T03:59:13.657Z,4.03
2022-08-26T04:01:40.767Z,4.22
2022-08-26T04:04:07.837Z,4.38
2022-08-26T04:06:44.751Z,4.60
2022-08-26T04:09:13.770Z,4.13
2022-08-26T04:11:42.019Z,3.90
2022-08-26T04:14:14.225Z,3.90
2022-08-26T04:16:44.762Z,4.35
2022-08-26T04:19:12.501Z,4.20
2022-08-26T04:21:40.618Z,4.00
2022-08-26T04:24:12.068Z,4.20
2022-08-26T04:26:39.571Z,4.03
2022-08-26T04:29:14.675Z,4.05
2022-08-26T04:31:41.749Z,4.05
2022-08-26T04:34:08.645Z,3.63
2022-08-26T04:36:38.634Z,4.10
2022-08-26T04:39:05.536Z,4.00
2022-08-26T04:41:32.582Z,3.80
2022-08-26T04:43:59.452Z,4.68
2022-08-26T04:46:26.373Z,3.70
2022-08-26T04:48:53.830Z,3.85
2022-08-26T04:51:23.778Z,4.07
2022-08-26T04:53:50.666Z,3.60
2022-08-26T04:56:18.016Z,4.18
2022-08-26T04:58:44.887Z,3.72
2022-08-26T05:08:06.419Z,3.83
2022-08-26T05:10:34.989Z,4.63
2022-08-26T05:13:03.518Z,3.83
2022-08-26T05:15:37.633Z,3.90
2022-08-26T05:18:05.442Z,4.07
2022-08-26T05:20:32.955Z,3.97
2022-08-26T05:23:02.792Z,3.60
2022-08-26T05:25:29.920Z,3.90
2022-08-26T05:27:57.156Z,3.90
2022-08-26T05:30:24.068Z,3.97
2022-08-26T05:32:55.140Z,4.25
2022-08-26T05:35:22.967Z,3.70
2022-08-26T05:37:49.783Z,3.78
2022-08-26T05:40:16.899Z,4.07
2022-08-26T05:42:47.630Z,4.05
2022-08-26T05:45:14.518Z,4.50
2022-08-26T05:47:41.479Z,4.65
2022-08-26T05:50:08.861Z,3.95
2022-08-26T05:52:35.673Z,4.38
2022-08-26T05:55:02.593Z,5.10
2022-08-26T05:57:29.964Z,4.25
2022-08-26T05:59:57.087Z,4.15
2022-08-26T06:02:24.612Z,4.65
2022-08-26T06:04:52.802Z,4.25
2022-08-26T06:07:39.716Z,3.90
2022-08-26T06:10:31.049Z,4.55
2022-08-26T06:12:54.289Z,4.28
2022-08-26T06:15:22.070Z,4.07
2022-08-26T06:17:50.815Z,4.20
2022-08-26T06:20:17.851Z,4.03
2022-08-26T06:23:03.943Z,3.97
2022-08-26T06:25:40.296Z,4.70
2022-08-26T06:28:07.230Z,4.03
2022-08-26T06:30:38.497Z,4.13
2022-08-26T06:33:05.430Z,4.07
2022-08-26T06:35:37.204Z,3.97
2022-08-26T06:38:04.177Z,4.15
2022-08-26T06:40:31.575Z,4.03
2022-08-26T06:42:58.473Z,3.88
2022-08-26T06:45:25.321Z,3.80
2022-08-26T06:47:52.919Z,3.88
2022-08-26T06:50:19.798Z,3.78
2022-08-26T06:52:47.978Z,4.13
2022-08-26T06:55:15.420Z,3.95
2022-08-26T06:57:42.344Z,3.85
2022-08-26T07:00:13.083Z,3.60
2022-08-26T07:02:40.920Z,3.97
2022-08-26T07:05:13.931Z,4.18
2022-08-26T07:07:40.850Z,4.72
2022-08-26T07:10:10.295Z,3.55
2022-08-26T07:12:37.281Z,3.35
2022-08-26T07:15:04.834Z,3.38
2022-08-26T07:17:31.759Z,3.60
2022-08-26T07:20:00.990Z,3.70
2022-08-26T07:22:27.921Z,3.55
2022-08-26T07:24:55.548Z,3.45
2022-08-26T07:27:22.739Z,3.53
2022-08-26T07:29:49.840Z,3.60
2022-08-26T07:32:19.001Z,3.30
2022-08-26T07:34:45.889Z,3.40
2022-08-26T07:37:12.789Z,3.65
2022-08-26T07:39:41.650Z,3.65
2022-08-26T07:42:10.721Z,3.05
2022-08-26T07:45:50.726Z,3.33
2022-08-26T07:48:17.971Z,3.35
2022-08-26T07:50:50.241Z,3.25
2022-08-26T07:53:18.186Z,3.33
2022-08-26T07:55:46.650Z,3.40
2022-08-26T07:58:13.628Z,5.43
2022-08-26T08:00:40.474Z,3.13
2022-08-26T08:03:07.575Z,3.25
2022-08-26T08:05:34.835Z,3.20
2022-08-26T08:08:21.865Z,3.30
2022-08-26T08:10:53.432Z,3.10
2022-08-26T08:13:20.278Z,3.58
2022-08-26T08:15:47.237Z,3.25
2022-08-26T08:18:17.196Z,3.17
2022-08-26T08:20:47.668Z,2.78
2022-08-26T08:23:31.619Z,3.15
2022-08-26T08:26:03.581Z,3.00
2022-08-26T08:28:30.460Z,3.13
2022-08-26T08:30:57.867Z,2.92
2022-08-26T08:33:24.875Z,3.10
2022-08-26T08:35:52.340Z,3.17
2022-08-26T08:38:19.213Z,3.15
2022-08-26T08:40:46.511Z,3.33
2022-08-26T08:43:16.498Z,2.88
2022-08-26T08:45:49.658Z,3.35
2022-08-26T08:50:56.642Z,3.08
2022-08-26T08:53:39.528Z,2.80
2022-08-26T08:56:28.784Z,3.33
2022-08-26T08:59:17.462Z,3.33
2022-08-26T09:02:03.399Z,2.88
2022-08-26T09:04:34.773Z,3.20
2022-08-26T09:07:02.635Z,2.72
2022-08-26T09:09:38.866Z,3.30
2022-08-26T09:12:09.301Z,3.10
2022-08-26T09:14:36.174Z,2.90
2022-08-26T09:17:34.923Z,3.20
2022-08-26T09:20:08.403Z,3.10
2022-08-26T09:22:37.539Z,3.15
2022-08-26T09:25:08.069Z,3.30
2022-08-26T09:30:26.845Z,3.20
2022-08-26T09:33:20.214Z,3.13
2022-08-26T09:35:48.839Z,3.47
2022-08-26T09:38:32.793Z,3.33
2022-08-26T09:41:05.268Z,3.38
2022-08-26T09:43:32.265Z,3.35
2022-08-26T09:46:15.203Z,3.30
2022-08-26T09:48:43.025Z,3.50
2022-08-26T09:51:26.424Z,4.43
2022-08-26T09:53:58.090Z,4.53
2022-08-26T09:56:33.099Z,4.13
2022-08-26T09:59:01.016Z,4.80
2022-08-26T10:01:42.000Z,3.97
2022-08-26T10:04:23.202Z,4.00
2022-08-26T10:07:07.342Z,4.45
2022-08-26T10:09:38.465Z,3.90
2022-08-26T10:12:13.461Z,4.15
2022-08-26T10:14:58.047Z,3.60
2022-08-26T10:17:53.328Z,3.63
2022-08-26T10:20:27.489Z,4.28
2022-08-26T10:22:58.836Z,4.45
2022-08-26T10:25:56.955Z,4.50
2022-08-26T10:28:48.945Z,4.30
2022-08-26T10:31:40.305Z,4.22
2022-08-26T10:34:08.408Z,4.82
2022-08-26T10:37:13.504Z,3.97
2022-08-26T10:39:51.884Z,4.45
2022-08-26T10:42:37.805Z,4.13
2022-08-26T10:45:15.089Z,3.97
2022-08-26T10:47:54.207Z,4.10
2022-08-26T10:50:32.110Z,4.55
2022-08-26T10:53:19.674Z,4.50
2022-08-26T10:56:18.623Z,4.45
2022-08-26T10:59:20.164Z,4.45
2022-08-26T11:01:57.451Z,4.47
2022-08-26T11:04:30.084Z,4.45
2022-08-26T11:07:31.655Z,4.00
2022-08-26T11:10:02.460Z,4.45
2022-08-26T11:12:36.137Z,4.60
2022-08-26T11:15:08.275Z,4.15
2022-08-26T11:17:44.937Z,4.07
2022-08-26T11:20:37.306Z,4.50
2022-08-26T11:23:28.970Z,4.38
2022-08-26T11:26:05.186Z,4.82
2022-08-26T11:28:40.244Z,4.60
2022-08-26T11:31:13.092Z,4.50
2022-08-26T11:33:52.723Z,4.80
2022-08-26T11:36:43.079Z,4.88
2022-08-26T11:39:28.895Z,4.38
2022-08-26T11:42:00.176Z,5.10
2022-08-26T11:44:36.047Z,4.97
2022-08-26T11:47:03.338Z,4.93
2022-08-26T11:49:31.484Z,5.38
2022-08-26T11:52:13.701Z,5.38
2022-08-26T11:54:40.613Z,5.20
2022-08-26T11:57:09.485Z,4.95
2022-08-26T11:59:39.332Z,5.50
2022-08-26T12:02:13.228Z,5.35
2022-08-26T12:07:09.392Z,4.65
2022-08-26T12:09:37.246Z,5.18
2022-08-26T12:12:16.425Z,4.75
2022-08-26T12:14:43.746Z,4.85
2022-08-26T12:17:27.563Z,5.70
2022-08-26T12:19:54.402Z,5.13
2022-08-26T12:22:24.212Z,5.45
2022-08-26T12:24:59.815Z,5.35
2022-08-26T12:27:33.950Z,5.10
2022-08-26T12:30:21.911Z,5.72
2022-08-26T12:32:57.962Z,5.47
2022-08-26T12:39:51.394Z,5.20
2022-08-26T12:42:39.209Z,5.28
2022-08-26T12:45:07.412Z,5.55
2022-08-26T12:47:42.545Z,4.85
2022-08-26T12:50:27.035Z,5.20
2022-08-26T12:55:25.139Z,5.25
2022-08-26T12:57:52.481Z,5.68
2022-08-26T13:00:33.183Z,5.47
2022-08-26T13:03:01.764Z,4.72
2022-08-26T13:05:33.315Z,6.07
2022-08-26T13:08:17.449Z,5.47
2022-08-26T13:10:46.820Z,4.72
2022-08-26T13:13:13.913Z,5.65
2022-08-26T13:15:41.038Z,5.45
2022-08-26T13:18:08.013Z,5.90
2022-08-26T13:20:35.441Z,5.57
2022-08-26T13:23:03.185Z,5.60
2022-08-26T13:25:30.115Z,5.38
2022-08-26T13:27:57.040Z,5.88
2022-08-26T13:30:23.832Z,5.45
2022-08-26T13:32:54.227Z,5.35
2022-08-26T13:35:21.650Z,5.47
2022-08-26T13:37:48.482Z,6.00
2022-08-26T13:40:15.511Z,5.22
2022-08-26T13:42:49.583Z,5.57
2022-08-26T13:45:16.976Z,5.82
2022-08-26T13:47:44.663Z,5.93
2022-08-26T13:50:11.482Z,6.00
2022-08-26T13:52:38.350Z,5.60
2022-08-26T13:55:06.760Z,5.93
2022-08-26T13:57:33.677Z,5.30
2022-08-26T14:00:00.505Z,6.15
2022-08-26T14:02:27.589Z,5.25
2022-08-26T14:04:55.332Z,6.57
2022-08-26T14:07:22.800Z,6.10
2022-08-26T14:09:49.770Z,5.95
2022-08-26T14:12:16.786Z,6.22
2022-08-26T14:14:43.723Z,5.90
2022-08-26T14:17:11.009Z,5.65
2022-08-26T14:19:37.912Z,5.53
2022-08-26T14:22:04.818Z,5.53
2022-08-26T14:24:31.714Z,5.72
2022-08-26T14:26:58.749Z,4.88
2022-08-26T14:29:26.314Z,5.20
2022-08-26T14:31:54.598Z,5.53
2022-08-26T14:34:21.532Z,5.50
2022-08-26T14:36:48.438Z,5.70
2022-08-26T14:39:15.301Z,4.88
2022-08-26T14:41:54.159Z,5.13
2022-08-26T14:44:22.235Z,5.07
2022-08-26T14:46:49.984Z,4.60
2022-08-26T14:49:17.615Z,5.10
2022-08-26T14:51:44.563Z,4.82
2022-08-26T14:54:12.228Z,4.68
2022-08-26T14:56:44.955Z,4.60
2022-08-26T14:59:12.852Z,4.13
2022-08-26T15:01:39.855Z,4.45
2022-08-26T15:04:06.803Z,4.10
2022-08-26T15:06:33.849Z,4.38
2022-08-26T15:09:00.778Z,5.22
2022-08-26T15:11:27.763Z,4.80
2022-08-26T15:13:54.763Z,4.88
2022-08-26T15:16:22.387Z,5.00
2022-08-26T15:18:51.297Z,5.18
2022-08-26T15:21:19.438Z,5.63
2022-08-26T15:23:47.604Z,5.80
2022-08-26T15:26:15.251Z,5.22
2022-08-26T15:28:42.184Z,6.15
2022-08-26T15:31:09.471Z,5.53
2022-08-26T15:33:36.417Z,5.93
2022-08-26T15:36:03.974Z,5.90
2022-08-26T15:38:31.755Z,5.65
2022-08-26T15:41:02.894Z,6.22
2022-08-26T15:43:30.122Z,6.43
2022-08-26T15:45:57.615Z,6.15
2022-08-26T15:48:24.743Z,6.28
2022-08-26T15:50:56.376Z,5.95
2022-08-26T15:53:23.707Z,5.82
2022-08-26T15:55:50.907Z,6.25
2022-08-26T15:58:19.801Z,6.50
2022-08-26T16:00:46.697Z,5.70
2022-08-26T16:03:13.556Z,6.60
2022-08-26T16:05:41.039Z,5.30
2022-08-26T16:08:08.211Z,5.43
2022-08-26T16:10:36.404Z,5.00
2022-08-26T16:13:03.339Z,5.22
2022-08-26T16:15:32.449Z,4.28
2022-08-26T16:18:01.967Z,4.90
2022-08-26T16:20:29.674Z,4.63
2022-08-26T16:22:56.518Z,4.63
2022-08-26T16:25:23.470Z,4.07
2022-08-26T16:27:51.890Z,4.95
2022-08-26T16:30:22.115Z,4.70
2022-08-26T16:32:49.015Z,4.20
2022-08-26T16:35:16.257Z,4.93
2022-08-26T16:37:43.204Z,3.65
2022-08-26T16:40:10.612Z,4.47
2022-08-26T16:42:37.935Z,4.50
2022-08-26T16:45:05.528Z,5.63
2022-08-26T16:47:33.009Z,4.75
2022-08-26T16:50:00.036Z,4.90
2022-08-26T16:52:31.315Z,5.13
2022-08-26T16:54:58.480Z,5.45
2022-08-26T16:57:25.369Z,6.38
2022-08-26T16:59:52.308Z,7.68
2022-08-26T17:02:19.649Z,8.13
2022-08-26T17:04:49.260Z,9.68
2022-08-26T17:07:17.418Z,8.27
2022-08-26T17:09:44.303Z,8.52
2022-08-26T17:12:11.181Z,8.20
2022-08-26T17:14:38.044Z,8.27
2022-08-26T17:17:06.094Z,8.52
2022-08-26T17:19:40.704Z,9.60
2022-08-26T17:22:09.048Z,9.32
2022-08-26T17:24:35.952Z,9.18
2022-08-26T17:27:02.838Z,9.75
2022-08-26T17:29:29.720Z,9.70
2022-08-26T17:31:56.594Z,9.98
2022-08-26T17:34:23.550Z,9.13
2022-08-26T17:36:50.616Z,10.13
2022-08-26T17:39:17.586Z,9.52
2022-08-26T17:41:44.488Z,10.35
2022-08-26T17:44:11.329Z,10.73
2022-08-26T17:46:38.523Z,10.52
2022-08-26T17:49:06.030Z,9.90
2022-08-26T17:51:33.302Z,10.52
2022-08-26T17:54:00.127Z,11.13
2022-08-26T17:56:28.065Z,10.13
2022-08-26T17:58:56.879Z,9.85
2022-08-26T18:01:26.193Z,10.23
2022-08-26T18:03:58.185Z,10.50
2022-08-26T18:06:27.464Z,10.77
2022-08-26T18:08:54.931Z,11.23
2022-08-26T18:11:23.111Z,11.63
2022-08-26T18:13:50.001Z,10.77
2022-08-26T18:16:17.803Z,10.65
2022-08-26T18:18:44.938Z,11.20
2022-08-26T18:21:20.177Z,9.77
2022-08-26T18:23:47.406Z,9.80
2022-08-26T18:26:19.409Z,11.05
2022-08-26T18:28:46.348Z,10.75
2022-08-26T18:31:13.311Z,10.93
2022-08-26T18:33:40.708Z,9.48
2022-08-26T18:36:07.621Z,10.25
2022-08-26T18:38:34.532Z,10.90
2022-08-26T18:41:03.750Z,9.95
2022-08-26T18:43:30.637Z,11.38
2022-08-26T18:46:08.378Z,10.80
2022-08-26T18:48:36.760Z,11.75
2022-08-26T18:51:04.487Z,11.25
2022-08-26T18:53:31.769Z,11.15
2022-08-26T18:55:58.784Z,10.77
2022-08-26T18:58:25.794Z,11.40
2022-08-26T19:00:52.697Z,12.00
2022-08-26T19:03:19.604Z,11.82
2022-08-26T19:05:46.559Z,10.88
2022-08-26T19:08:13.483Z,11.15
2022-08-26T19:10:40.574Z,11.35
2022-08-26T19:13:07.938Z,12.02
2022-08-26T19:15:40.236Z,11.55
2022-08-26T19:18:07.820Z,11.80
2022-08-26T19:20:37.682Z,10.93
2022-08-26T19:23:10.601Z,11.40
2022-08-26T19:25:50.044Z,10.18
2022-08-26T19:28:17.896Z,11.13
2022-08-26T19:30:45.548Z,10.48
2022-08-26T19:33:13.449Z,10.63
2022-08-26T19:35:40.600Z,11.23
2022-08-26T19:38:07.465Z,10.43
2022-08-26T19:40:35.145Z,10.60
2022-08-26T19:43:02.254Z,11.02
2022-08-26T19:45:29.436Z,11.05
2022-08-26T19:47:56.620Z,9.77
2022-08-26T19:50:25.028Z,10.52
2022-08-26T19:52:51.872Z,10.75
2022-08-26T19:55:18.780Z,10.73
2022-08-26T19:57:45.728Z,10.77
2022-08-26T20:00:15.092Z,11.35
2022-08-26T20:02:42.424Z,11.60
2022-08-26T20:05:10.254Z,11.38
2022-08-26T20:07:37.220Z,10.65
2022-08-26T20:10:05.726Z,10.13
2022-08-26T20:12:35.553Z,9.60
2022-08-26T20:15:05.931Z,9.73
2022-08-26T20:17:32.933Z,10.10
2022-08-26T20:20:26.864Z,9.43
2022-08-26T20:23:01.844Z,10.13
2022-08-26T20:25:28.721Z,9.65
2022-08-26T20:27:55.606Z,9.25
2022-08-26T20:30:22.598Z,10.10
2022-08-26T20:32:49.506Z,10.02
2022-08-26T20:35:16.402Z,9.65
2022-08-26T20:37:43.334Z,8.95
2022-08-26T20:40:11.425Z,9.30
2022-08-26T20:42:38.387Z,8.55
2022-08-26T20:45:06.825Z,8.65
2022-08-26T20:47:36.764Z,9.13
2022-08-26T20:50:04.065Z,8.50
2022-08-26T20:52:30.990Z,8.98
2022-08-26T20:54:58.087Z,8.93
2022-08-26T20:57:24.964Z,8.57
2022-08-26T20:59:51.799Z,8.23
2022-08-26T21:02:18.631Z,7.65
2022-08-26T21:04:45.539Z,7.97
2022-08-26T21:07:12.488Z,8.93
2022-08-26T21:09:39.344Z,8.95
2022-08-26T21:12:06.724Z,8.38
2022-08-26T21:14:33.531Z,8.70
2022-08-26T21:17:00.348Z,8.10
2022-08-26T21:19:27.242Z,8.30
2022-08-26T21:21:54.120Z,8.70
2022-08-26T21:24:20.991Z,8.48
2022-08-26T21:26:47.904Z,8.02
2022-08-26T21:29:14.909Z,7.88
2022-08-26T21:31:46.068Z,8.32
2022-08-26T21:34:15.879Z,8.40
2022-08-26T21:36:42.854Z,8.82
2022-08-26T21:39:11.953Z,8.98
2022-08-26T21:41:39.167Z,9.23
2022-08-26T21:44:05.973Z,8.18
2022-08-26T21:46:36.336Z,9.13
2022-08-26T21:49:05.557Z,8.35
2022-08-26T21:51:35.332Z,8.52
2022-08-26T21:54:02.822Z,8.68
2022-08-26T21:56:31.634Z,9.38
2022-08-26T21:58:58.720Z,8.23
2022-08-26T22:01:27.134Z,8.45
2022-08-26T22:03:54.449Z,8.98
2022-08-26T22:06:23.459Z,10.15
2022-08-26T22:08:50.452Z,9.15
2022-08-26T22:11:18.665Z,9.40
2022-08-26T22:13:45.652Z,9.15
2022-08-26T22:16:13.302Z,10.00
2022-08-26T22:18:43.224Z,10.40
2022-08-26T22:21:12.015Z,9.23
2022-08-26T22:23:39.081Z,9.27
2022-08-26T22:26:06.858Z,10.02
2022-08-26T22:28:33.775Z,8.10
2022-08-26T22:31:01.848Z,7.95
2022-08-26T22:33:29.061Z,9.38
2022-08-26T22:35:56.003Z,9.82
2022-08-26T22:38:25.921Z,8.85
2022-08-26T22:40:56.532Z,7.90
2022-08-26T22:43:24.266Z,8.10
2022-08-26T22:45:52.831Z,8.02
2022-08-26T22:48:21.189Z,8.27
2022-08-26T22:50:48.243Z,7.90
2022-08-26T22:53:15.827Z,8.27
2022-08-26T22:55:43.549Z,9.07
2022-08-26T22:58:11.528Z,8.40
2022-08-26T23:00:40.189Z,9.27
2022-08-26T23:03:07.471Z,9.73
2022-08-26T23:05:34.612Z,9.60
2022-08-26T23:08:01.559Z,9.13
2022-08-26T23:10:28.403Z,9.10
2022-08-26T23:12:55.393Z,9.85
2022-08-26T23:15:22.392Z,9.50
2022-08-26T23:17:51.381Z,9.50
2022-08-26T23:20:26.309Z,8.27
2022-08-26T23:22:53.618Z,8.52
2022-08-26T23:25:20.562Z,9.05
2022-08-26T23:27:47.478Z,10.10
2022-08-26T23:30:17.013Z,10.18
2022-08-26T23:32:43.874Z,9.80
2022-08-26T23:35:10.970Z,9.63
2022-08-26T23:37:42.861Z,8.95
2022-08-26T23:40:15.277Z,9.70
2022-08-26T23:42:42.241Z,10.13
2022-08-26T23:45:10.204Z,10.70
2022-08-26T23:47:37.042Z,9.93
2022-08-26T23:50:04.521Z,10.30
2022-08-26T23:52:49.878Z,9.98
2022-08-26T23:55:16.708Z,10.05
2022-08-26T23:57:43.623Z,10.23
